Time;durP1;ratioP1;P1;durP2;ratioP2;P2;SDS_P1;SDS_P2;PMS_P1;PMS_P2;Temp;Humidity;BMP_temperature;BMP_pressure;BME280_temperature;BME280_humidity;BME280_pressure;Samples;Min_cycle;Max_cycle;Signal;HPM_P1;HPM_P2
2023/11/03 00:00:00;;;;;;;8.87;2.60;;;8.70;99.90;;;;;;5034411;28;20515;-66
2023/11/03 00:02:30;;;;;;;9.67;2.77;;;8.70;99.90;;;;;;5034184;28;20463;-66
2023/11/03 00:04:58;;;;;;;9.33;3.37;;;8.70;99.90;;;;;;5033980;28;20877;-65
2023/11/03 00:07:26;;;;;;;8.83;3.83;;;8.60;99.90;;;;;;5033727;28;20997;-67
2023/11/03 00:09:53;;;;;;;6.87;2.53;;;8.70;99.90;;;;;;5033635;28;20465;-67
2023/11/03 00:12:21;;;;;;;9.67;2.27;;;8.60;99.90;;;;;;5033748;28;20548;-67
2023/11/03 00:14:48;;;;;;;9.43;3.33;;;8.60;99.90;;;;;;5033840;28;20742;-67
2023/11/03 00:17:17;;;;;;;9.73;2.83;;;8.60;99.90;;;;;;5033535;28;20463;-65
2023/11/03 00:19:46;;;;;;;11.73;2.80;;;8.60;99.90;;;;;;5033198;28;20472;-67
2023/11/03 00:22:13;;;;;;;7.60;2.67;;;8.60;99.90;;;;;;5032941;28;20459;-65
2023/11/03 00:24:41;;;;;;;12.10;3.37;;;8.60;99.90;;;;;;5033879;28;20903;-65
2023/11/03 00:27:08;;;;;;;5.07;2.10;;;8.60;99.90;;;;;;5033722;28;20532;-70
2023/11/03 00:29:35;;;;;;;4.93;2.57;;;8.60;99.90;;;;;;5033803;28;20463;-70
2023/11/03 00:32:03;;;;;;;5.90;2.50;;;8.60;90.80;;;;;;5034398;28;20502;-68
2023/11/03 00:34:31;;;;;;;7.40;2.53;;;8.60;21.00;;;;;;5034244;28;20515;-68
2023/11/03 00:36:59;;;;;;;6.83;2.50;;;8.60;39.90;;;;;;5034606;28;20554;-69
2023/11/03 00:39:28;;;;;;;6.93;2.40;;;8.60;20.40;;;;;;5033801;28;20467;-67
2023/11/03 00:41:55;;;;;;;9.77;2.97;;;8.60;1.00;;;;;;5033978;28;20502;-69
2023/11/03 00:44:25;;;;;;;6.47;2.87;;;8.60;1.00;;;;;;5033075;28;20507;-70
2023/11/03 00:46:53;;;;;;;8.90;3.27;;;8.60;1.00;;;;;;5033456;28;20883;-68
2023/11/03 00:49:20;;;;;;;5.90;2.40;;;8.60;18.60;;;;;;5036729;28;20807;-68
2023/11/03 00:51:48;;;;;;;6.20;2.70;;;8.70;1.00;;;;;;5036888;28;20555;-67
2023/11/03 00:54:16;;;;;;;6.90;2.47;;;8.60;1.00;;;;;;5036701;28;20554;-67
2023/11/03 00:56:43;;;;;;;10.93;3.20;;;8.70;1.00;;;;;;5036471;28;20455;-68
2023/11/03 00:59:11;;;;;;;6.80;2.80;;;8.70;1.00;;;;;;5036484;28;20466;-65
2023/11/03 01:01:38;;;;;;;12.60;2.93;;;8.70;1.00;;;;;;5036438;28;20468;-66
2023/11/03 01:04:06;;;;;;;5.53;2.30;;;8.70;1.00;;;;;;5036531;28;20471;-67
2023/11/03 01:06:33;;;;;;;6.57;3.00;;;8.80;1.00;;;;;;5036432;28;20497;-65
2023/11/03 01:09:07;;;;;;;5.50;2.83;;;8.80;99.90;;;;;;5035416;28;20552;-66
2023/11/03 01:11:36;;;;;;;8.87;2.50;;;8.80;99.90;;;;;;5036513;28;20933;-66
2023/11/03 01:14:04;;;;;;;5.43;2.23;;;8.80;99.90;;;;;;5036671;28;20438;-65
2023/11/03 01:16:33;;;;;;;5.00;2.37;;;8.80;99.90;;;;;;5036493;28;20731;-66
2023/11/03 01:19:04;;;;;;;5.60;2.90;;;8.90;99.90;;;;;;5036200;28;20470;-66
2023/11/03 01:21:33;;;;;;;9.17;2.57;;;8.80;99.90;;;;;;5036279;28;20512;-64
2023/11/03 01:24:02;;;;;;;6.47;2.53;;;8.90;99.90;;;;;;5036491;28;20487;-64
2023/11/03 01:26:31;;;;;;;7.30;2.67;;;8.90;71.40;;;;;;5036184;28;20470;-65
2023/11/03 01:28:58;;;;;;;6.97;2.07;;;8.90;36.70;;;;;;5036330;28;20919;-64
2023/11/03 01:31:26;;;;;;;7.13;2.73;;;8.90;1.00;;;;;;5035926;28;20582;-65
2023/11/03 01:33:53;;;;;;;3.67;1.80;;;8.90;1.00;;;;;;5034968;28;20893;-64
2023/11/03 01:36:20;;;;;;;4.50;2.37;;;8.90;1.00;;;;;;5035757;28;20459;-65
2023/11/03 01:38:48;;;;;;;7.27;2.00;;;8.90;1.00;;;;;;5036148;28;20510;-62
2023/11/03 01:41:17;;;;;;;8.00;1.90;;;8.90;1.00;;;;;;5035883;28;20459;-62
2023/11/03 01:44:03;;;;;;;4.87;1.97;;;8.90;1.00;;;;;;5036112;28;20561;-63
2023/11/03 01:46:30;;;;;;;5.37;2.07;;;8.90;1.00;;;;;;5035787;28;20493;-63
2023/11/03 01:48:57;;;;;;;6.43;2.57;;;9.00;1.00;;;;;;5035992;28;20465;-63
2023/11/03 01:51:25;;;;;;;5.17;2.03;;;9.00;1.00;;;;;;5036047;28;20462;-64
2023/11/03 01:53:53;;;;;;;6.27;2.20;;;9.00;1.00;;;;;;5036212;28;20456;-64
2023/11/03 01:56:22;;;;;;;7.17;2.40;;;9.00;99.90;;;;;;5035148;28;20467;-63
2023/11/03 01:58:49;;;;;;;4.50;2.30;;;9.00;1.00;;;;;;5035217;28;20458;-63
2023/11/03 02:01:17;;;;;;;5.60;2.27;;;9.00;99.90;;;;;;5034870;28;20462;-63
2023/11/03 02:03:44;;;;;;;6.93;2.67;;;9.10;99.90;;;;;;5034983;28;20463;-63
2023/11/03 02:06:11;;;;;;;6.70;2.40;;;9.10;99.90;;;;;;5035907;28;20460;-62
2023/11/03 02:08:39;;;;;;;4.53;2.07;;;9.10;99.90;;;;;;5035037;28;21007;-62
2023/11/03 02:11:07;;;;;;;5.17;2.40;;;9.10;99.90;;;;;;5035449;28;20821;-62
2023/11/03 02:13:37;;;;;;;4.77;2.43;;;9.10;99.90;;;;;;5035757;28;20463;-62
2023/11/03 02:16:05;;;;;;;4.53;2.23;;;9.10;99.90;;;;;;5035345;28;20856;-62
2023/11/03 02:18:32;;;;;;;5.33;2.27;;;9.10;99.90;;;;;;5034978;28;20463;-61
2023/11/03 02:20:59;;;;;;;7.00;2.73;;;9.10;99.90;;;;;;5034383;28;20459;-62
2023/11/03 02:23:28;;;;;;;6.57;2.80;;;9.10;99.90;;;;;;5035234;28;20464;-62
2023/11/03 02:25:55;;;;;;;4.60;2.20;;;9.10;99.90;;;;;;5035716;28;20518;-62
2023/11/03 02:28:22;;;;;;;5.00;1.93;;;9.10;99.90;;;;;;5035343;28;20872;-62
2023/11/03 02:30:49;;;;;;;6.03;2.17;;;9.10;99.90;;;;;;5035204;28;20476;-63
2023/11/03 02:33:16;;;;;;;3.43;2.10;;;9.10;84.80;;;;;;5035375;28;20517;-62
2023/11/03 02:35:44;;;;;;;5.13;2.30;;;9.10;70.60;;;;;;5035371;28;20438;-65
2023/11/03 02:38:16;;;;;;;2.77;1.93;;;9.10;99.90;;;;;;5035455;28;20541;-63
2023/11/03 02:40:45;;;;;;;5.50;2.17;;;9.10;82.10;;;;;;5035130;28;20442;-62
2023/11/03 02:43:12;;;;;;;6.37;3.20;;;9.10;88.70;;;;;;5035298;28;20455;-63
2023/11/03 02:45:39;;;;;;;3.97;2.13;;;9.10;99.90;;;;;;5034805;28;20792;-63
2023/11/03 02:48:07;;;;;;;5.33;2.40;;;9.10;28.30;;;;;;5033940;28;20463;-63
2023/11/03 02:50:34;;;;;;;5.40;2.17;;;9.10;84.80;;;;;;5034090;28;20533;-63
2023/11/03 02:53:01;;;;;;;4.27;2.10;;;9.10;99.90;;;;;;5033432;28;20769;-63
2023/11/03 02:55:28;;;;;;;4.30;1.70;;;9.10;99.90;;;;;;5033832;28;20553;-62
2023/11/03 02:57:57;;;;;;;3.60;1.90;;;9.10;99.90;;;;;;5033881;28;20769;-62
2023/11/03 03:00:24;;;;;;;3.20;1.90;;;9.10;99.90;;;;;;5033401;28;20463;-64
2023/11/03 03:02:51;;;;;;;3.73;2.10;;;9.10;99.90;;;;;;5034988;28;20508;-62
2023/11/03 03:05:18;;;;;;;9.77;2.00;;;9.10;81.10;;;;;;5034734;28;20467;-62
2023/11/03 03:07:46;;;;;;;7.77;2.77;;;9.10;53.70;;;;;;5034298;28;20483;-63
2023/11/03 03:10:13;;;;;;;4.37;2.00;;;9.10;44.60;;;;;;5033456;28;20498;-64
2023/11/03 03:12:41;;;;;;;3.67;2.30;;;9.10;19.70;;;;;;5034934;28;20939;-63
2023/11/03 03:15:11;;;;;;;6.43;2.27;;;9.10;90.20;;;;;;5035052;28;20550;-62
2023/11/03 03:17:38;;;;;;;6.97;2.50;;;9.10;67.80;;;;;;5034694;28;20561;-62
2023/11/03 03:20:06;;;;;;;4.63;1.90;;;9.10;96.10;;;;;;5034893;28;20884;-62
2023/11/03 03:22:33;;;;;;;5.97;2.30;;;9.10;99.90;;;;;;5034783;28;20494;-62
2023/11/03 03:25:02;;;;;;;5.33;2.47;;;9.00;99.90;;;;;;5034528;28;20459;-60
2023/11/03 03:27:29;;;;;;;3.30;2.00;;;9.00;99.90;;;;;;5034845;28;20730;-62
2023/11/03 03:29:56;;;;;;;4.60;2.20;;;9.00;99.90;;;;;;5034670;28;20444;-61
2023/11/03 03:32:24;;;;;;;5.83;2.67;;;9.10;99.90;;;;;;5033842;28;20505;-62
2023/11/03 03:34:52;;;;;;;4.23;2.73;;;9.10;99.90;;;;;;5034373;28;20459;-61
2023/11/03 03:37:19;;;;;;;4.07;1.80;;;9.00;95.90;;;;;;5034754;28;20545;-62
2023/11/03 03:39:46;;;;;;;4.97;1.83;;;9.00;86.60;;;;;;5034205;28;20566;-61
2023/11/03 03:42:13;;;;;;;5.93;2.67;;;9.00;99.90;;;;;;5034859;28;20562;-62
2023/11/03 03:44:41;;;;;;;4.33;2.30;;;9.00;99.90;;;;;;5034424;28;20903;-62
2023/11/03 03:47:09;;;;;;;8.50;2.50;;;9.10;99.90;;;;;;5034266;28;20460;-62
2023/11/03 03:49:37;;;;;;;4.47;2.43;;;9.10;91.00;;;;;;5034464;28;20512;-61
2023/11/03 03:52:06;;;;;;;6.83;2.20;;;9.10;99.90;;;;;;5034341;28;20936;-61
2023/11/03 03:54:34;;;;;;;3.90;2.03;;;9.10;99.90;;;;;;5033694;28;20818;-61
2023/11/03 03:57:01;;;;;;;4.50;2.10;;;9.10;73.10;;;;;;5034255;28;20463;-60
2023/11/03 03:59:29;;;;;;;4.43;2.03;;;9.00;86.20;;;;;;5034326;28;20774;-62
2023/11/03 04:01:56;;;;;;;6.67;2.50;;;9.10;71.40;;;;;;5034289;28;20469;-60
2023/11/03 04:04:25;;;;;;;3.20;1.90;;;9.10;91.70;;;;;;5034050;28;20558;-60
2023/11/03 04:06:53;;;;;;;5.80;1.80;;;9.10;99.90;;;;;;5033989;28;20512;-60
2023/11/03 04:09:20;;;;;;;8.67;2.00;;;9.10;99.90;;;;;;5033955;28;20549;-61
2023/11/03 04:11:48;;;;;;;4.13;2.03;;;9.10;82.90;;;;;;5033943;28;20455;-60
2023/11/03 04:14:15;;;;;;;5.70;2.33;;;9.10;1.00;;;;;;5033757;28;20484;-60
2023/11/03 04:16:42;;;;;;;4.40;2.17;;;9.10;1.00;;;;;;5033609;28;20460;-59
2023/11/03 04:19:10;;;;;;;6.40;2.73;;;9.10;1.00;;;;;;5033744;28;20557;-59
2023/11/03 04:21:37;;;;;;;7.50;1.97;;;9.10;1.00;;;;;;5034340;28;20470;-60
2023/11/03 04:24:06;;;;;;;5.93;2.17;;;9.20;1.00;;;;;;5037160;28;20758;-59
2023/11/03 04:26:33;;;;;;;7.60;2.40;;;9.20;1.00;;;;;;5036951;28;20918;-59
2023/11/03 04:29:00;;;;;;;4.03;2.30;;;9.10;1.00;;;;;;5037113;28;20462;-59
2023/11/03 04:31:27;;;;;;;3.70;2.10;;;9.10;1.00;;;;;;5037560;28;20466;-59
2023/11/03 04:33:55;;;;;;;5.13;2.40;;;9.20;1.00;;;;;;5037416;28;20494;-60
2023/11/03 04:36:22;;;;;;;6.73;2.40;;;9.20;1.00;;;;;;5036593;28;20466;-59
2023/11/03 04:38:50;;;;;;;6.63;2.30;;;9.20;1.00;;;;;;5036882;28;20971;-59
2023/11/03 04:41:18;;;;;;;6.13;3.07;;;9.20;1.00;;;;;;5036959;28;20469;-60
2023/11/03 04:43:46;;;;;;;4.50;2.20;;;9.20;1.00;;;;;;5036918;28;20462;-59
2023/11/03 04:46:13;;;;;;;7.60;2.30;;;9.20;1.00;;;;;;5036929;28;20506;-60
2023/11/03 04:48:41;;;;;;;6.47;3.43;;;9.20;1.00;;;;;;5036976;28;20481;-58
2023/11/03 04:51:08;;;;;;;9.70;2.70;;;9.20;1.00;;;;;;5036924;28;20469;-59
2023/11/03 04:53:35;;;;;;;5.57;2.83;;;9.20;1.00;;;;;;5036717;28;20486;-59
2023/11/03 04:56:02;;;;;;;6.60;2.37;;;9.20;1.00;;;;;;5036870;28;20947;-59
2023/11/03 04:58:31;;;;;;;6.57;2.40;;;9.10;1.00;;;;;;5036255;28;20469;-59
2023/11/03 05:00:58;;;;;;;4.87;2.53;;;9.20;1.00;;;;;;5035871;28;20444;-59
2023/11/03 05:03:25;;;;;;;5.90;2.43;;;9.20;1.00;;;;;;5036987;28;20538;-58
2023/11/03 05:05:52;;;;;;;7.67;2.63;;;9.20;1.00;;;;;;5036447;28;20835;-59
2023/11/03 05:08:20;;;;;;;8.90;2.63;;;9.20;1.00;;;;;;5035819;28;20462;-58
2023/11/03 05:10:47;;;;;;;4.30;2.50;;;9.10;14.40;;;;;;5036896;28;20489;-58
2023/11/03 05:13:15;;;;;;;5.93;2.50;;;9.10;1.60;;;;;;5036081;28;20491;-58
2023/11/03 05:15:45;;;;;;;7.33;2.30;;;9.10;24.80;;;;;;5036459;28;20510;-58
2023/11/03 05:18:12;;;;;;;4.60;2.70;;;9.00;24.90;;;;;;5036342;28;20887;-59
2023/11/03 05:20:40;;;;;;;7.37;2.50;;;9.00;47.40;;;;;;5036120;28;20553;-59
2023/11/03 05:23:07;;;;;;;5.73;2.70;;;9.00;68.10;;;;;;5036352;28;20460;-57
2023/11/03 05:25:35;;;;;;;6.40;2.93;;;9.00;72.40;;;;;;5035729;28;20482;-58
2023/11/03 05:28:03;;;;;;;6.43;2.50;;;9.00;99.90;;;;;;5035939;28;20570;-59
2023/11/03 05:30:30;;;;;;;5.37;2.60;;;9.10;53.90;;;;;;5035637;28;20464;-58
2023/11/03 05:32:59;;;;;;;5.63;3.00;;;9.10;25.20;;;;;;5035144;28;20862;-58
2023/11/03 05:35:28;;;;;;;5.53;2.80;;;9.00;99.90;;;;;;5036557;28;20463;-58
2023/11/03 05:37:56;;;;;;;8.57;2.53;;;9.00;98.00;;;;;;5036187;28;20953;-58
2023/11/03 05:40:23;;;;;;;6.73;2.83;;;9.00;99.90;;;;;;5035762;28;20887;-58
2023/11/03 05:42:50;;;;;;;5.23;3.00;;;9.00;96.50;;;;;;5035620;28;20455;-57
2023/11/03 05:45:17;;;;;;;4.87;2.60;;;9.00;98.10;;;;;;5036058;28;20455;-58
2023/11/03 05:47:45;;;;;;;3.87;2.30;;;9.00;99.90;;;;;;5036139;28;20459;-58
2023/11/03 05:50:13;;;;;;;6.63;3.07;;;9.00;99.90;;;;;;5036035;28;20512;-58
2023/11/03 05:52:41;;;;;;;6.40;3.00;;;8.90;99.90;;;;;;5035447;28;20491;-58
2023/11/03 05:55:11;;;;;;;10.87;3.40;;;9.00;99.90;;;;;;5036210;28;20462;-58
2023/11/03 05:57:38;;;;;;;7.67;3.57;;;8.90;99.90;;;;;;5035927;28;20566;-58
2023/11/03 06:00:09;;;;;;;7.87;3.30;;;8.90;99.90;;;;;;5035934;28;20471;-59
2023/11/03 06:02:37;;;;;;;8.13;2.43;;;8.90;99.90;;;;;;5035341;28;20434;-57
2023/11/03 06:05:05;;;;;;;6.37;2.57;;;8.90;99.90;;;;;;5034242;28;20923;-59
2023/11/03 06:07:34;;;;;;;6.50;2.70;;;8.90;99.90;;;;;;5033927;28;20935;-58
2023/11/03 06:10:02;;;;;;;8.60;3.07;;;8.90;99.90;;;;;;5033809;28;20498;-58
2023/11/03 06:12:29;;;;;;;4.53;3.00;;;8.90;99.90;;;;;;5033892;28;20495;-59
2023/11/03 06:14:57;;;;;;;8.43;2.60;;;8.90;99.90;;;;;;5033646;28;20459;-59
2023/11/03 06:17:24;;;;;;;8.63;4.70;;;8.90;99.90;;;;;;5033650;28;20710;-58
2023/11/03 06:19:51;;;;;;;9.73;2.90;;;8.90;99.90;;;;;;5034811;28;20532;-58
2023/11/03 06:22:19;;;;;;;10.47;3.70;;;8.90;99.90;;;;;;5035131;28;20465;-58
2023/11/03 06:24:47;;;;;;;7.57;3.33;;;8.90;99.90;;;;;;5035182;28;20462;-58
2023/11/03 06:27:14;;;;;;;9.80;2.90;;;8.90;99.90;;;;;;5035430;28;20532;-58
2023/11/03 06:29:41;;;;;;;5.50;2.90;;;8.90;99.90;;;;;;5035116;28;20767;-58
2023/11/03 06:32:08;;;;;;;5.73;3.00;;;8.90;99.90;;;;;;5035076;28;20459;-58
2023/11/03 06:34:36;;;;;;;7.60;3.40;;;8.90;99.90;;;;;;5034912;28;20586;-57
2023/11/03 06:37:03;;;;;;;8.57;2.70;;;8.90;99.90;;;;;;5035182;28;20465;-58
2023/11/03 06:39:30;;;;;;;6.00;2.77;;;8.90;99.90;;;;;;5035000;28;20959;-58
2023/11/03 06:41:59;;;;;;;7.37;3.00;;;8.90;99.90;;;;;;5034920;28;20511;-59
2023/11/03 06:44:26;;;;;;;9.37;3.20;;;8.90;99.90;;;;;;5034781;28;20433;-59
2023/11/03 06:46:53;;;;;;;6.90;2.63;;;8.90;99.90;;;;;;5033967;28;20451;-58
2023/11/03 06:49:20;;;;;;;6.27;3.07;;;8.90;99.90;;;;;;5034710;28;20954;-59
2023/11/03 06:51:48;;;;;;;7.90;3.53;;;8.90;99.90;;;;;;5034911;28;20558;-59
2023/11/03 06:54:15;;;;;;;20.63;3.37;;;8.90;99.90;;;;;;5034939;28;20787;-59
2023/11/03 06:56:45;;;;;;;10.53;3.27;;;8.90;99.90;;;;;;5034746;28;20900;-59
2023/11/03 06:59:13;;;;;;;7.53;2.90;;;9.00;99.90;;;;;;5034655;28;20814;-58
2023/11/03 07:01:40;;;;;;;10.37;3.80;;;9.00;99.90;;;;;;5034852;28;20918;-59
2023/11/03 07:04:09;;;;;;;7.70;2.80;;;9.00;99.90;;;;;;5035027;28;20434;-58
2023/11/03 07:06:36;;;;;;;6.10;2.93;;;9.00;99.90;;;;;;5034548;28;20490;-58
2023/11/03 07:09:04;;;;;;;8.87;3.03;;;9.00;99.90;;;;;;5034539;28;20594;-58
2023/11/03 07:11:31;;;;;;;9.07;2.93;;;9.00;99.90;;;;;;5034750;28;20532;-59
2023/11/03 07:13:58;;;;;;;8.40;3.00;;;9.00;99.90;;;;;;5034357;28;20491;-58
2023/11/03 07:16:27;;;;;;;8.13;3.97;;;9.00;99.90;;;;;;5034271;28;20590;-59
2023/11/03 07:18:54;;;;;;;7.20;3.53;;;9.00;99.90;;;;;;5034822;28;20950;-59
2023/11/03 07:21:21;;;;;;;9.43;3.03;;;9.10;99.90;;;;;;5034780;28;20483;-59
2023/11/03 07:23:49;;;;;;;7.10;2.80;;;9.10;99.90;;;;;;5034758;28;20783;-60
2023/11/03 07:26:18;;;;;;;7.53;2.93;;;9.10;99.90;;;;;;5034913;28;20565;-58
2023/11/03 07:28:46;;;;;;;6.30;2.93;;;9.20;99.90;;;;;;5033890;28;20516;-59
2023/11/03 07:31:13;;;;;;;7.57;3.00;;;9.30;99.90;;;;;;5033889;28;20951;-59
2023/11/03 07:33:42;;;;;;;8.00;3.00;;;9.20;58.80;;;;;;5034395;28;21046;-59
2023/11/03 07:36:10;;;;;;;7.20;3.40;;;9.30;89.30;;;;;;5034056;28;20465;-59
2023/11/03 07:38:38;;;;;;;7.30;3.00;;;9.30;18.70;;;;;;5034272;28;20895;-58
2023/11/03 07:41:08;;;;;;;6.27;3.10;;;9.40;7.70;;;;;;5034403;28;20947;-59
2023/11/03 07:43:37;;;;;;;5.73;3.07;;;9.40;1.00;;;;;;5034211;28;20441;-59
2023/11/03 07:46:05;;;;;;;8.47;2.87;;;9.30;1.00;;;;;;5034047;28;20453;-59
2023/11/03 07:48:32;;;;;;;12.00;3.80;;;9.20;2.00;;;;;;5033688;28;20532;-58
2023/11/03 07:51:01;;;;;;;11.17;3.63;;;9.20;99.90;;;;;;5034338;28;20459;-59
2023/11/03 07:53:33;;;;;;;8.80;3.33;;;9.20;99.90;;;;;;5034009;28;20552;-58
2023/11/03 07:56:01;;;;;;;9.90;2.70;;;9.10;99.90;;;;;;5034305;28;20467;-58
2023/11/03 07:58:29;;;;;;;9.70;3.27;;;9.20;99.90;;;;;;5037506;28;20440;-58
2023/11/03 08:00:57;;;;;;;8.30;3.20;;;9.20;99.90;;;;;;5037919;28;20463;-58
2023/11/03 08:03:27;;;;;;;8.03;2.83;;;9.20;99.90;;;;;;5037730;28;20731;-58
2023/11/03 08:05:55;;;;;;;11.83;3.00;;;9.20;99.90;;;;;;5041275;27;20887;-58
2023/11/03 08:08:23;;;;;;;8.07;3.60;;;9.20;99.90;;;;;;5036216;28;20462;-58
2023/11/03 08:10:51;;;;;;;11.67;3.30;;;9.30;59.60;;;;;;5036632;28;20471;-59
2023/11/03 08:13:19;;;;;;;8.30;2.83;;;9.30;60.50;;;;;;5037042;28;20465;-59
2023/11/03 08:15:46;;;;;;;8.53;3.70;;;9.30;39.50;;;;;;5036892;28;20463;-58
2023/11/03 08:18:14;;;;;;;8.13;3.00;;;9.40;26.40;;;;;;5036135;28;20459;-58
2023/11/03 08:20:41;;;;;;;10.90;2.80;;;9.50;1.00;;;;;;5036018;28;20455;-59
2023/11/03 08:23:09;;;;;;;7.60;3.07;;;9.50;1.00;;;;;;5035765;28;20918;-58
2023/11/03 08:25:38;;;;;;;5.43;2.80;;;9.50;1.00;;;;;;5035832;28;20463;-58
2023/11/03 08:28:06;;;;;;;7.43;3.00;;;9.50;1.00;;;;;;5034745;28;20457;-58
2023/11/03 08:30:33;;;;;;;8.83;3.37;;;9.50;1.00;;;;;;5035721;28;20463;-58
2023/11/03 08:33:01;;;;;;;9.10;4.00;;;9.50;1.00;;;;;;5036489;28;20459;-57
2023/11/03 08:35:30;;;;;;;12.30;3.43;;;9.50;1.00;;;;;;5036510;28;20459;-59
2023/11/03 08:37:57;;;;;;;9.30;3.80;;;9.50;1.00;;;;;;5036378;28;20438;-58
2023/11/03 08:40:25;;;;;;;8.33;3.30;;;9.60;1.00;;;;;;5036351;28;20523;-57
2023/11/03 08:42:55;;;;;;;5.43;2.60;;;9.60;1.00;;;;;;5036367;28;20471;-58
2023/11/03 08:45:23;;;;;;;11.07;3.67;;;9.60;1.00;;;;;;5031648;28;20480;-58
2023/11/03 08:47:51;;;;;;;9.47;3.23;;;9.60;1.00;;;;;;5034414;28;20495;-58
2023/11/03 08:50:19;;;;;;;8.53;3.33;;;9.70;1.00;;;;;;5033853;28;20459;-58
2023/11/03 08:52:47;;;;;;;7.37;2.90;;;9.70;1.00;;;;;;5034295;28;20451;-58
2023/11/03 08:55:15;;;;;;;11.00;3.50;;;9.80;1.00;;;;;;5034054;28;20931;-59
2023/11/03 08:57:43;;;;;;;7.77;3.30;;;9.80;1.00;;;;;;5034046;28;20467;-59
2023/11/03 09:00:15;;;;;;;9.80;3.37;;;9.80;1.00;;;;;;5034537;28;20458;-59
2023/11/03 09:02:44;;;;;;;10.13;3.67;;;9.80;1.00;;;;;;5034890;28;20505;-57
2023/11/03 09:05:12;;;;;;;10.37;3.50;;;9.80;1.00;;;;;;5034726;28;20475;-60
2023/11/03 09:07:40;;;;;;;6.07;2.80;;;9.70;1.00;;;;;;5033870;28;20934;-58
2023/11/03 09:10:10;;;;;;;12.13;3.50;;;9.70;1.00;;;;;;5034841;28;20553;-58
2023/11/03 09:12:38;;;;;;;6.93;3.33;;;9.70;1.00;;;;;;5035072;28;20463;-57
2023/11/03 09:15:07;;;;;;;9.40;4.67;;;9.60;1.00;;;;;;5034906;28;20919;-58
2023/11/03 09:17:36;;;;;;;8.60;3.57;;;9.60;1.00;;;;;;5035685;28;20455;-58
2023/11/03 09:20:07;;;;;;;12.13;3.00;;;9.50;1.00;;;;;;5035865;28;20463;-56
2023/11/03 09:22:34;;;;;;;9.53;3.00;;;9.50;1.00;;;;;;5036386;28;20941;-57
2023/11/03 09:25:03;;;;;;;6.63;2.87;;;9.50;1.00;;;;;;5036421;28;20479;-57
2023/11/03 09:27:31;;;;;;;8.13;3.23;;;9.50;1.00;;;;;;5034472;28;20566;-57
2023/11/03 09:29:59;;;;;;;7.03;3.10;;;9.50;1.00;;;;;;5028398;28;20498;-59
2023/11/03 09:32:27;;;;;;;9.03;3.13;;;9.40;1.00;;;;;;5016270;28;20441;-59
2023/11/03 09:34:56;;;;;;;13.17;3.63;;;9.40;46.30;;;;;;5034843;28;20753;-58
2023/11/03 09:37:24;;;;;;;11.43;3.30;;;9.40;11.20;;;;;;5035800;28;20465;-57
2023/11/03 09:39:51;;;;;;;8.57;3.43;;;9.40;25.70;;;;;;5036041;28;20513;-59
2023/11/03 09:42:19;;;;;;;8.10;3.00;;;9.40;57.50;;;;;;5035879;28;20841;-59
2023/11/03 09:44:47;;;;;;;12.17;4.23;;;9.40;12.90;;;;;;5036070;28;20473;-57
2023/11/03 09:47:15;;;;;;;5.93;3.63;;;9.50;1.00;;;;;;5036137;28;20461;-57
2023/11/03 09:49:44;;;;;;;7.07;3.10;;;9.50;1.00;;;;;;5035820;28;20459;-58
2023/11/03 09:52:14;;;;;;;8.70;3.53;;;9.60;1.00;;;;;;5035787;28;20442;-58
2023/11/03 09:54:42;;;;;;;7.10;3.30;;;9.60;1.00;;;;;;5036000;28;20501;-57
2023/11/03 09:57:12;;;;;;;7.27;3.13;;;9.70;1.00;;;;;;5035972;28;20547;-58
2023/11/03 09:59:40;;;;;;;10.00;3.50;;;9.70;1.00;;;;;;5035670;28;20559;-58
2023/11/03 10:02:11;;;;;;;7.43;3.10;;;9.80;1.00;;;;;;5036188;28;20491;-59
2023/11/03 10:04:39;;;;;;;8.40;3.10;;;9.90;1.00;;;;;;5036087;28;20552;-58
2023/11/03 10:07:10;;;;;;;5.63;2.77;;;10.00;1.00;;;;;;5035126;28;20459;-58
2023/11/03 10:09:42;;;;;;;12.40;4.10;;;10.10;1.00;;;;;;5035567;28;20463;-57
2023/11/03 10:12:10;;;;;;;10.47;2.90;;;10.20;1.00;;;;;;5035432;28;20481;-58
2023/11/03 10:14:39;;;;;;;8.83;3.07;;;10.30;1.00;;;;;;5035534;28;20495;-57
2023/11/03 10:17:08;;;;;;;9.20;3.00;;;10.60;1.00;;;;;;5035637;28;20445;-58
2023/11/03 10:19:35;;;;;;;9.57;2.97;;;10.90;99.90;;;;;;5034981;28;20466;-58
2023/11/03 10:22:08;;;;;;;8.53;3.27;;;11.20;99.90;;;;;;5035405;28;20541;-58
2023/11/03 10:24:36;;;;;;;11.93;3.57;;;11.60;99.90;;;;;;5035518;28;20459;-59
2023/11/03 10:27:05;;;;;;;8.83;3.10;;;11.90;31.90;;;;;;5035472;28;20465;-58
2023/11/03 10:29:33;;;;;;;9.50;2.97;;;12.40;1.00;;;;;;5034570;28;20825;-58
2023/11/03 10:32:00;;;;;;;4.90;2.50;;;12.80;1.00;;;;;;5034911;28;20466;-58
2023/11/03 10:34:28;;;;;;;6.80;3.20;;;13.20;1.00;;;;;;5035187;28;20491;-58
2023/11/03 10:36:57;;;;;;;5.87;3.13;;;13.40;99.90;;;;;;5034856;28;20778;-58
2023/11/03 10:39:25;;;;;;;8.40;3.80;;;13.40;99.90;;;;;;5032823;28;20459;-58
2023/11/03 10:41:53;;;;;;;7.70;2.90;;;13.50;99.90;;;;;;5019964;28;20454;-58
2023/11/03 10:44:26;;;;;;;9.90;2.60;;;13.40;99.90;;;;;;5023352;28;20901;-60
2023/11/03 10:46:57;;;;;;;8.13;3.40;;;13.00;99.90;;;;;;5024066;28;20475;-58
2023/11/03 10:49:30;;;;;;;8.83;3.53;;;12.50;99.90;;;;;;5034839;28;20554;-58
2023/11/03 10:52:07;;;;;;;8.13;3.30;;;12.40;99.90;;;;;;5034763;28;20562;-58
2023/11/03 10:54:41;;;;;;;9.23;3.13;;;12.50;99.90;;;;;;5037969;27;20577;-58
2023/11/03 10:57:11;;;;;;;9.17;2.93;;;13.00;99.90;;;;;;5035198;28;20460;-58
2023/11/03 10:59:41;;;;;;;7.87;4.20;;;13.50;99.90;;;;;;5034659;28;20466;-58
2023/11/03 11:02:15;;;;;;;6.67;2.40;;;13.50;99.90;;;;;;5034837;28;20553;-58
2023/11/03 11:04:51;;;;;;;6.47;2.77;;;13.50;99.90;;;;;;5035174;28;20561;-57
2023/11/03 11:07:21;;;;;;;9.90;3.27;;;13.40;99.90;;;;;;5031708;28;20502;-58
2023/11/03 11:09:49;;;;;;;7.90;2.90;;;13.50;99.90;;;;;;5044538;28;20467;-58
2023/11/03 11:12:16;;;;;;;6.37;3.00;;;13.60;99.90;;;;;;5053276;28;20450;-58
2023/11/03 11:14:45;;;;;;;7.57;3.33;;;14.00;99.90;;;;;;5052269;28;20771;-58
2023/11/03 11:17:18;;;;;;;11.67;3.50;;;14.20;99.90;;;;;;5052188;28;20502;-59
2023/11/03 11:19:47;;;;;;;9.33;3.13;;;14.50;99.90;;;;;;5029785;28;20479;-59
2023/11/03 11:22:15;;;;;;;8.33;2.83;;;14.40;86.00;;;;;;5031357;28;21000;-58
2023/11/03 11:24:43;;;;;;;7.67;3.10;;;13.90;55.70;;;;;;5019757;28;20531;-58
2023/11/03 11:27:13;;;;;;;9.33;3.70;;;13.80;87.50;;;;;;5032514;28;20554;-58
2023/11/03 11:29:40;;;;;;;9.60;4.23;;;13.80;76.90;;;;;;5031836;28;20502;-58
2023/11/03 11:32:11;;;;;;;6.93;2.97;;;13.70;66.80;;;;;;5031036;28;20458;-58
2023/11/03 11:34:39;;;;;;;8.17;3.27;;;13.70;64.70;;;;;;5023065;28;20500;-57
2023/11/03 11:37:31;;;;;;;9.83;3.10;;;13.60;39.90;;;;;;5013024;28;20471;-58
2023/11/03 11:39:59;;;;;;;9.43;3.17;;;13.80;98.30;;;;;;5007555;28;20868;-58
2023/11/03 11:42:29;;;;;;;8.80;4.47;;;13.90;59.70;;;;;;5013174;28;20495;-56
2023/11/03 11:44:57;;;;;;;8.87;3.27;;;14.00;50.80;;;;;;5013973;28;20459;-57
2023/11/03 11:47:29;;;;;;;7.93;4.10;;;13.80;35.80;;;;;;5014353;28;20489;-56
2023/11/03 11:49:56;;;;;;;10.40;3.47;;;13.70;38.20;;;;;;5014344;28;20467;-56
2023/11/03 11:52:25;;;;;;;6.60;3.10;;;13.70;25.10;;;;;;5014335;28;20563;-57
2023/11/03 11:54:53;;;;;;;11.20;3.40;;;13.40;19.50;;;;;;5013771;28;20839;-56
2023/11/03 11:57:21;;;;;;;8.20;3.60;;;13.40;22.10;;;;;;5012867;28;20898;-58
2023/11/03 11:59:51;;;;;;;7.50;3.30;;;13.20;20.10;;;;;;5029946;28;20976;-58
2023/11/03 12:02:19;;;;;;;10.67;3.93;;;13.00;12.00;;;;;;5030585;28;20492;-58
2023/11/03 12:04:52;;;;;;;9.33;4.00;;;13.10;32.60;;;;;;5028722;28;20467;-58
2023/11/03 12:07:22;;;;;;;9.10;4.17;;;13.20;47.00;;;;;;5030569;28;20544;-56
2023/11/03 12:09:53;;;;;;;8.47;4.40;;;13.10;22.30;;;;;;5031637;28;20455;-57
2023/11/03 12:12:21;;;;;;;7.27;4.10;;;13.20;28.00;;;;;;5033232;28;20463;-58
2023/11/03 12:14:48;;;;;;;13.20;4.13;;;13.30;37.60;;;;;;5049510;28;20550;-58
2023/11/03 12:17:15;;;;;;;10.83;4.00;;;13.20;41.00;;;;;;5135704;28;20477;-57
2023/11/03 12:19:44;;;;;;;9.57;3.80;;;13.00;28.10;;;;;;5054782;27;20698;-57
2023/11/03 12:22:22;;;;;;;10.10;4.00;;;12.70;41.70;;;;;;5023738;28;20536;-56
2023/11/03 12:24:49;;;;;;;11.77;4.80;;;12.60;61.90;;;;;;5029645;28;21037;-57
2023/11/03 12:27:17;;;;;;;8.00;3.60;;;12.40;56.50;;;;;;5029563;28;20554;-58
2023/11/03 12:29:46;;;;;;;7.90;3.20;;;12.20;94.30;;;;;;5029966;28;20447;-59
2023/11/03 12:32:14;;;;;;;11.70;3.57;;;12.10;99.90;;;;;;5031197;28;20463;-59
2023/11/03 12:34:42;;;;;;;10.07;3.40;;;12.10;99.90;;;;;;5032332;28;20509;-58
2023/11/03 12:37:10;;;;;;;8.47;3.03;;;12.20;99.90;;;;;;5032968;28;20463;-58
2023/11/03 12:39:52;;;;;;;10.30;3.40;;;12.20;99.90;;;;;;5032385;28;20471;-58
2023/11/03 12:42:22;;;;;;;14.23;4.10;;;12.30;99.90;;;;;;5031800;28;20455;-60
2023/11/03 12:44:51;;;;;;;6.97;4.00;;;12.20;99.90;;;;;;5034005;28;20456;-59
2023/11/03 12:47:37;;;;;;;8.77;3.30;;;12.30;99.90;;;;;;5033370;28;20455;-59
2023/11/03 12:50:18;;;;;;;11.00;3.90;;;12.40;99.90;;;;;;5033978;28;20454;-60
2023/11/03 12:52:50;;;;;;;15.27;3.53;;;12.40;99.90;;;;;;5033188;28;20871;-59
2023/11/03 12:55:26;;;;;;;10.43;3.43;;;12.60;99.90;;;;;;5034554;28;20495;-60
2023/11/03 12:57:54;;;;;;;6.60;3.23;;;12.70;99.90;;;;;;5035335;28;20459;-59
2023/11/03 13:00:24;;;;;;;9.40;2.80;;;12.70;99.90;;;;;;5035854;28;20558;-59